sensor_id;sensor_type;location;lat;lon;timestamp;pressure;altitude;pressure_sealevel;temperature;humidity
69316;BME280;56445;43.552;5.034;2023-04-08T16:29:37;101512.47;;;34.42;12.27
69316;BME280;56445;43.552;5.034;2023-04-08T16:32:04;101487.59;;;34.41;12.49
69316;BME280;56445;43.552;5.034;2023-04-08T16:34:31;101502.38;;;34.53;12.14
69316;BME280;56445;43.552;5.034;2023-04-08T16:36:58;101494.03;;;34.41;12.26
69316;BME280;56445;43.552;5.034;2023-04-08T16:39:26;101502.25;;;34.50;12.45
69316;BME280;56445;43.552;5.034;2023-04-08T16:41:53;101490.34;;;34.53;12.58
69316;BME280;56445;43.552;5.034;2023-04-08T16:44:20;101491.16;;;34.53;12.59
69316;BME280;56445;43.552;5.034;2023-04-08T16:46:48;101488.53;;;34.45;12.60
69316;BME280;56445;43.552;5.034;2023-04-08T16:49:15;101504.75;;;34.39;12.61
69316;BME280;56445;43.552;5.034;2023-04-08T16:51:43;101499.41;;;34.34;12.42
69316;BME280;56445;43.552;5.034;2023-04-08T16:54:11;101512.22;;;34.47;12.50
69316;BME280;56445;43.552;5.034;2023-04-08T16:56:38;101491.56;;;34.40;12.31
69316;BME280;56445;43.552;5.034;2023-04-08T16:59:11;101500.09;;;34.43;12.54
69316;BME280;56445;43.552;5.034;2023-04-08T17:01:38;101505.22;;;34.41;12.89
69316;BME280;56445;43.552;5.034;2023-04-08T17:04:06;101502.19;;;34.46;12.78
69316;BME280;56445;43.552;5.034;2023-04-08T17:06:33;101518.06;;;34.42;12.97
69316;BME280;56445;43.552;5.034;2023-04-08T17:09:02;101514.59;;;34.33;12.46
69316;BME280;56445;43.552;5.034;2023-04-08T17:11:29;101515.97;;;34.39;12.87
69316;BME280;56445;43.552;5.034;2023-04-08T17:13:57;101504.09;;;34.30;12.47
69316;BME280;56445;43.552;5.034;2023-04-08T17:16:24;101501.75;;;34.32;12.73
69316;BME280;56445;43.552;5.034;2023-04-08T17:18:51;101503.84;;;34.35;12.71
69316;BME280;56445;43.552;5.034;2023-04-08T17:21:18;101501.03;;;34.35;12.73
69316;BME280;56445;43.552;5.034;2023-04-08T17:23:45;101507.34;;;34.32;12.87
69316;BME280;56445;43.552;5.034;2023-04-08T17:26:13;101527.19;;;34.39;12.76
69316;BME280;56445;43.552;5.034;2023-04-08T17:28:40;101520.31;;;34.36;12.68
69316;BME280;56445;43.552;5.034;2023-04-08T17:31:08;101519.47;;;34.36;12.70
69316;BME280;56445;43.552;5.034;2023-04-08T17:33:35;101505.25;;;34.29;12.85
69316;BME280;56445;43.552;5.034;2023-04-08T17:36:03;101509.00;;;34.33;12.36
69316;BME280;56445;43.552;5.034;2023-04-08T17:38:30;101517.38;;;34.33;12.34
69316;BME280;56445;43.552;5.034;2023-04-08T17:40:57;101529.97;;;34.39;12.56
69316;BME280;56445;43.552;5.034;2023-04-08T17:43:25;101520.19;;;34.33;12.29
69316;BME280;56445;43.552;5.034;2023-04-08T17:45:52;101512.03;;;34.28;12.63
69316;BME280;56445;43.552;5.034;2023-04-08T17:48:19;101523.22;;;34.28;12.32
69316;BME280;56445;43.552;5.034;2023-04-08T17:50:46;101526.28;;;34.23;12.60
69316;BME280;56445;43.552;5.034;2023-04-08T17:53:13;101531.88;;;34.23;12.33
69316;BME280;56445;43.552;5.034;2023-04-08T17:55:40;101542.97;;;34.19;12.70
69316;BME280;56445;43.552;5.034;2023-04-08T17:58:07;101533.97;;;34.13;12.49
69316;BME280;56445;43.552;5.034;2023-04-08T18:00:34;101544.94;;;34.06;12.48
69316;BME280;56445;43.552;5.034;2023-04-08T18:03:01;101545.19;;;33.89;12.52
69316;BME280;56445;43.552;5.034;2023-04-08T18:05:29;101572.94;;;33.82;12.23
69316;BME280;56445;43.552;5.034;2023-04-08T18:07:57;101542.56;;;33.59;12.77
69316;BME280;56445;43.552;5.034;2023-04-08T18:10:25;101564.94;;;33.59;12.75
69316;BME280;56445;43.552;5.034;2023-04-08T18:12:52;101550.47;;;33.45;12.83
69316;BME280;56445;43.552;5.034;2023-04-08T18:15:34;101568.66;;;33.51;12.70
69316;BME280;56445;43.552;5.034;2023-04-08T18:18:02;101556.78;;;33.42;12.69
69316;BME280;56445;43.552;5.034;2023-04-08T18:20:29;101565.03;;;33.38;12.61
69316;BME280;56445;43.552;5.034;2023-04-08T18:22:56;101557.66;;;33.33;12.75
69316;BME280;56445;43.552;5.034;2023-04-08T18:25:25;101563.63;;;33.32;12.66
69316;BME280;56445;43.552;5.034;2023-04-08T18:27:53;101572.50;;;33.34;12.43
69316;BME280;56445;43.552;5.034;2023-04-08T18:30:20;101573.41;;;33.26;12.62
69316;BME280;56445;43.552;5.034;2023-04-08T18:32:47;101575.59;;;33.20;12.29
69316;BME280;56445;43.552;5.034;2023-04-08T18:35:14;101580.78;;;33.09;12.43
69316;BME280;56445;43.552;5.034;2023-04-08T18:37:41;101565.09;;;32.96;12.48
69316;BME280;56445;43.552;5.034;2023-04-08T18:40:08;101578.25;;;32.95;12.42
69316;BME280;56445;43.552;5.034;2023-04-08T18:42:36;101566.22;;;32.83;12.96
69316;BME280;56445;43.552;5.034;2023-04-08T18:45:03;101575.88;;;32.85;12.98
69316;BME280;56445;43.552;5.034;2023-04-08T18:47:30;101575.88;;;32.85;12.46
69316;BME280;56445;43.552;5.034;2023-04-08T18:49:57;101572.47;;;32.79;12.40
69316;BME280;56445;43.552;5.034;2023-04-08T18:52:25;101578.16;;;32.71;12.78
69316;BME280;56445;43.552;5.034;2023-04-08T18:54:52;101588.16;;;32.72;12.78
69316;BME280;56445;43.552;5.034;2023-04-08T18:57:19;101589.03;;;32.64;12.78
69316;BME280;56445;43.552;5.034;2023-04-08T18:59:47;101566.75;;;32.55;12.84
69316;BME280;56445;43.552;5.034;2023-04-08T19:02:14;101577.06;;;32.54;12.93
69316;BME280;56445;43.552;5.034;2023-04-08T19:04:42;101587.78;;;32.52;12.90
69316;BME280;56445;43.552;5.034;2023-04-08T19:07:09;101588.47;;;32.49;13.02
69316;BME280;56445;43.552;5.034;2023-04-08T19:09:37;101583.75;;;32.41;12.69
69316;BME280;56445;43.552;5.034;2023-04-08T19:12:04;101588.50;;;32.40;12.87
69316;BME280;56445;43.552;5.034;2023-04-08T19:14:31;101602.16;;;32.42;12.65
69316;BME280;56445;43.552;5.034;2023-04-08T19:16:58;101584.34;;;32.26;12.70
69316;BME280;56445;43.552;5.034;2023-04-08T19:19:27;101594.16;;;32.32;12.84
69316;BME280;56445;43.552;5.034;2023-04-08T19:21:54;101598.97;;;32.22;12.67
69316;BME280;56445;43.552;5.034;2023-04-08T19:24:22;101617.72;;;32.22;13.07
69316;BME280;56445;43.552;5.034;2023-04-08T19:26:49;101605.75;;;32.13;12.64
69316;BME280;56445;43.552;5.034;2023-04-08T19:29:18;101610.84;;;32.11;12.76
69316;BME280;56445;43.552;5.034;2023-04-08T19:31:48;101624.69;;;32.07;12.79
69316;BME280;56445;43.552;5.034;2023-04-08T19:34:15;101631.59;;;32.01;13.12
69316;BME280;56445;43.552;5.034;2023-04-08T19:36:43;101626.66;;;31.98;13.21
69316;BME280;56445;43.552;5.034;2023-04-08T19:39:10;101636.53;;;31.95;12.94
69316;BME280;56445;43.552;5.034;2023-04-08T19:41:37;101641.63;;;31.93;12.92
69316;BME280;56445;43.552;5.034;2023-04-08T19:44:04;101644.75;;;31.92;13.08
69316;BME280;56445;43.552;5.034;2023-04-08T19:46:31;101641.47;;;31.90;12.87
69316;BME280;56445;43.552;5.034;2023-04-08T19:48:59;101632.78;;;31.82;13.22
69316;BME280;56445;43.552;5.034;2023-04-08T19:51:26;101633.97;;;31.81;13.16
69316;BME280;56445;43.552;5.034;2023-04-08T19:53:55;101643.09;;;31.91;13.16
69316;BME280;56445;43.552;5.034;2023-04-08T19:56:22;101639.53;;;31.81;13.09
69316;BME280;56445;43.552;5.034;2023-04-08T19:58:50;101650.81;;;31.85;13.19
69316;BME280;56445;43.552;5.034;2023-04-08T20:01:17;101649.22;;;31.75;13.15
69316;BME280;56445;43.552;5.034;2023-04-08T20:03:44;101663.16;;;31.84;13.19
69316;BME280;56445;43.552;5.034;2023-04-08T20:06:17;101663.00;;;31.80;13.01
69316;BME280;56445;43.552;5.034;2023-04-08T20:08:44;101645.44;;;31.71;13.24
69316;BME280;56445;43.552;5.034;2023-04-08T20:11:12;101657.75;;;31.79;13.25
69316;BME280;56445;43.552;5.034;2023-04-08T20:13:39;101647.91;;;31.73;13.09
69316;BME280;56445;43.552;5.034;2023-04-08T20:16:06;101650.88;;;31.76;13.25
69316;BME280;56445;43.552;5.034;2023-04-08T20:18:33;101655.63;;;31.76;13.26
69316;BME280;56445;43.552;5.034;2023-04-08T20:21:01;101645.44;;;31.71;13.38
69316;BME280;56445;43.552;5.034;2023-04-08T20:23:28;101650.91;;;31.68;13.12
69316;BME280;56445;43.552;5.034;2023-04-08T20:25:55;101640.88;;;31.67;13.22
69316;BME280;56445;43.552;5.034;2023-04-08T20:28:22;101651.56;;;31.65;13.49
69316;BME280;56445;43.552;5.034;2023-04-08T20:30:49;101652.38;;;31.65;13.36
69316;BME280;56445;43.552;5.034;2023-04-08T20:33:17;101646.50;;;31.58;13.16
69316;BME280;56445;43.552;5.034;2023-04-08T20:35:44;101656.97;;;31.61;13.43
69316;BME280;56445;43.552;5.034;2023-04-08T20:38:13;101650.09;;;31.50;13.33
69316;BME280;56445;43.552;5.034;2023-04-08T20:40:43;101635.50;;;31.44;13.19
69316;BME280;56445;43.552;5.034;2023-04-08T20:43:10;101638.28;;;31.44;13.46
69316;BME280;56445;43.552;5.034;2023-04-08T20:45:40;101632.88;;;31.39;13.50
69316;BME280;56445;43.552;5.034;2023-04-08T20:48:07;101647.47;;;31.45;13.43
69316;BME280;56445;43.552;5.034;2023-04-08T20:50:42;101635.97;;;31.37;13.67
69316;BME280;56445;43.552;5.034;2023-04-08T20:53:11;101651.25;;;31.40;13.71
69316;BME280;56445;43.552;5.034;2023-04-08T20:55:42;101646.50;;;31.40;13.12
69316;BME280;56445;43.552;5.034;2023-04-08T20:58:09;101638.59;;;31.34;13.43
69316;BME280;56445;43.552;5.034;2023-04-08T21:00:37;101650.72;;;31.38;13.59
69316;BME280;56445;43.552;5.034;2023-04-08T21:03:04;101637.50;;;31.26;13.38
69316;BME280;56445;43.552;5.034;2023-04-08T21:05:35;101643.41;;;31.25;13.40
69316;BME280;56445;43.552;5.034;2023-04-08T21:08:06;101647.00;;;31.25;13.52
69316;BME280;56445;43.552;5.034;2023-04-08T21:10:33;101645.19;;;31.29;13.71
69316;BME280;56445;43.552;5.034;2023-04-08T21:13:01;101651.25;;;31.40;13.49
69316;BME280;56445;43.552;5.034;2023-04-08T21:15:28;101649.44;;;31.44;13.72
69316;BME280;56445;43.552;5.034;2023-04-08T21:17:55;101645.53;;;31.54;13.55
69316;BME280;56445;43.552;5.034;2023-04-08T21:20:22;101638.44;;;31.48;13.62
69316;BME280;56445;43.552;5.034;2023-04-08T21:22:50;101652.06;;;31.58;13.73
69316;BME280;56445;43.552;5.034;2023-04-08T21:25:17;101626.97;;;31.49;13.95
69316;BME280;56445;43.552;5.034;2023-04-08T21:27:44;101655.69;;;31.58;13.88
69316;BME280;56445;43.552;5.034;2023-04-08T21:35:55;101642.91;;;31.49;13.82
69316;BME280;56445;43.552;5.034;2023-04-08T21:38:23;101647.47;;;31.53;13.62
69316;BME280;56445;43.552;5.034;2023-04-08T21:40:50;101648.31;;;31.54;13.80
69316;BME280;56445;43.552;5.034;2023-04-08T21:43:30;101642.41;;;31.47;13.81
69316;BME280;56445;43.552;5.034;2023-04-08T21:45:57;101633.53;;;31.27;14.06
69316;BME280;56445;43.552;5.034;2023-04-08T21:48:24;101636.47;;;31.22;14.07
69316;BME280;56445;43.552;5.034;2023-04-08T21:50:51;101650.75;;;31.29;13.78
69316;BME280;56445;43.552;5.034;2023-04-08T21:53:19;101636.66;;;31.17;13.73
69316;BME280;56445;43.552;5.034;2023-04-08T21:55:47;101660.44;;;31.23;13.85
69316;BME280;56445;43.552;5.034;2023-04-08T21:58:14;101636.66;;;31.08;14.03
69316;BME280;56445;43.552;5.034;2023-04-08T22:00:43;101654.38;;;31.21;13.76
69316;BME280;56445;43.552;5.034;2023-04-08T22:03:10;101646.16;;;31.16;13.75
69316;BME280;56445;43.552;5.034;2023-04-08T22:05:37;101642.22;;;31.08;13.83
69316;BME280;56445;43.552;5.034;2023-04-08T22:08:05;101647.66;;;31.13;13.97
69316;BME280;56445;43.552;5.034;2023-04-08T22:10:32;101645.53;;;31.01;13.94
69316;BME280;56445;43.552;5.034;2023-04-08T22:12:59;101638.47;;;30.95;13.94
69316;BME280;56445;43.552;5.034;2023-04-08T22:15:26;101630.41;;;30.85;14.06
69316;BME280;56445;43.552;5.034;2023-04-08T22:17:53;101621.56;;;30.83;14.14
69316;BME280;56445;43.552;5.034;2023-04-08T22:20:20;101622.19;;;30.80;13.91
69316;BME280;56445;43.552;5.034;2023-04-08T22:22:47;101628.28;;;30.73;13.97
69316;BME280;56445;43.552;5.034;2023-04-08T22:25:15;101636.63;;;30.73;14.13
69316;BME280;56445;43.552;5.034;2023-04-08T22:27:42;101627.91;;;30.66;13.91
69316;BME280;56445;43.552;5.034;2023-04-08T22:30:09;101630.03;;;30.60;14.02
69316;BME280;56445;43.552;5.034;2023-04-08T22:32:36;101627.91;;;30.57;14.09
69316;BME280;56445;43.552;5.034;2023-04-08T22:35:07;101627.06;;;30.57;13.80
69316;BME280;56445;43.552;5.034;2023-04-08T22:37:40;101644.63;;;30.57;14.19
69316;BME280;56445;43.552;5.034;2023-04-08T22:40:08;101640.38;;;30.51;14.13
69316;BME280;56445;43.552;5.034;2023-04-08T22:42:35;101632.47;;;30.44;14.09
69316;BME280;56445;43.552;5.034;2023-04-08T22:45:02;101644.78;;;30.52;13.90
69316;BME280;56445;43.552;5.034;2023-04-08T22:47:30;101628.84;;;30.35;13.98
69316;BME280;56445;43.552;5.034;2023-04-08T22:49:57;101644.75;;;30.43;14.26
69316;BME280;56445;43.552;5.034;2023-04-08T22:52:24;101635.91;;;30.41;13.97
69316;BME280;56445;43.552;5.034;2023-04-08T22:54:52;101627.19;;;30.34;13.88
69316;BME280;56445;43.552;5.034;2023-04-08T22:57:19;101648.00;;;30.37;14.13
69316;BME280;56445;43.552;5.034;2023-04-08T22:59:46;101646.78;;;30.29;14.21
69316;BME280;56445;43.552;5.034;2023-04-08T23:02:13;101638.28;;;30.25;14.18
69316;BME280;56445;43.552;5.034;2023-04-08T23:04:51;101642.06;;;30.30;14.20
69316;BME280;56445;43.552;5.034;2023-04-08T23:07:19;101636.13;;;30.22;14.23
69316;BME280;56445;43.552;5.034;2023-04-08T23:09:46;101633.53;;;30.26;14.19
69316;BME280;56445;43.552;5.034;2023-04-08T23:12:13;101623.38;;;30.21;14.19
69316;BME280;56445;43.552;5.034;2023-04-08T23:14:40;101625.63;;;30.19;14.13
69316;BME280;56445;43.552;5.034;2023-04-08T23:17:10;101630.41;;;30.19;13.93
69316;BME280;56445;43.552;5.034;2023-04-08T23:19:37;101632.84;;;30.20;14.33
69316;BME280;56445;43.552;5.034;2023-04-08T23:22:04;101648.75;;;30.20;14.26
69316;BME280;56445;43.552;5.034;2023-04-08T23:24:32;101639.06;;;30.17;14.23
69316;BME280;56445;43.552;5.034;2023-04-08T23:27:00;101657.78;;;30.25;14.22
69316;BME280;56445;43.552;5.034;2023-04-08T23:29:28;101654.31;;;30.20;14.12
69316;BME280;56445;43.552;5.034;2023-04-08T23:31:56;101661.00;;;30.19;14.26
69316;BME280;56445;43.552;5.034;2023-04-08T23:34:30;101665.63;;;30.23;14.23
69316;BME280;56445;43.552;5.034;2023-04-08T23:37:14;101654.13;;;30.16;14.50
69316;BME280;56445;43.552;5.034;2023-04-08T23:39:41;101663.34;;;30.25;14.13
69316;BME280;56445;43.552;5.034;2023-04-08T23:42:08;101654.31;;;30.20;14.19
69316;BME280;56445;43.552;5.034;2023-04-08T23:47:02;101640.84;;;30.13;14.21
69316;BME280;56445;43.552;5.034;2023-04-08T23:49:29;101657.53;;;30.13;14.46
69316;BME280;56445;43.552;5.034;2023-04-08T23:51:56;101665.44;;;30.20;14.34
69316;BME280;56445;43.552;5.034;2023-04-08T23:54:23;101648.19;;;30.09;14.35
69316;BME280;56445;43.552;5.034;2023-04-08T23:56:50;101657.03;;;30.11;14.29
69316;BME280;56445;43.552;5.034;2023-04-08T23:59:17;101655.22;;;30.07;14.22
